Time;durP1;ratioP1;P1;durP2;ratioP2;P2;SDS_P1;SDS_P2;PMS_P1;PMS_P2;Temp;Humidity;BMP_temperature;BMP_pressure;BME280_temperature;BME280_humidity;BME280_pressure;Samples;Min_cycle;Max_cycle;Signal;HPM_P1;HPM_P2
2020/05/29 00:01:08;;;;;;;1.39;1.29;;;;;;;19.62;44.73;101634.85;;;;-52
2020/05/29 00:03:58;;;;;;;1.54;1.33;;;;;;;19.61;44.78;101634.56;;;;-52
2020/05/29 00:06:52;;;;;;;1.33;1.19;;;;;;;19.61;44.84;101633.33;;;;-52
2020/05/29 00:09:51;;;;;;;1.77;1.40;;;;;;;19.61;44.70;101634.73;;;;-53
2020/05/29 00:15:52;;;;;;;1.38;1.28;;;;;;;19.61;44.77;101636.30;;;;-52
2020/05/29 00:21:51;;;;;;;1.39;1.29;;;;;;;19.60;44.77;101633.64;;;;-52
2020/05/29 00:24:51;;;;;;;1.51;1.29;;;;;;;19.60;44.72;101634.82;;;;-52
2020/05/29 00:27:51;;;;;;;1.43;1.33;;;;;;;19.59;44.69;101632.76;;;;-53
2020/05/29 00:30:51;;;;;;;1.39;1.29;;;;;;;19.59;44.70;101636.45;;;;-52
2020/05/29 00:33:51;;;;;;;1.33;1.23;;;;;;;19.59;44.69;101632.24;;;;-52
2020/05/29 00:36:51;;;;;;;1.55;1.33;;;;;;;19.59;44.62;101638.13;;;;-52
2020/05/29 00:39:55;;;;;;;1.37;1.27;;;;;;;19.58;44.67;101636.38;;;;-52
2020/05/29 00:42:51;;;;;;;1.30;1.20;;;;;;;19.58;44.67;101637.33;;;;-52
2020/05/29 00:46:06;;;;;;;1.70;1.33;;;;;;;19.58;44.65;101634.52;;;;-51
2020/05/29 00:48:51;;;;;;;1.47;1.35;;;;;;;19.57;44.61;101634.92;;;;-51
2020/05/29 00:52:00;;;;;;;2.13;1.43;;;;;;;19.57;44.63;101634.59;;;;-52
2020/05/29 00:54:51;;;;;;;1.42;1.20;;;;;;;19.57;44.58;101628.78;;;;-52
2020/05/29 00:57:51;;;;;;;1.57;1.40;;;;;;;19.56;44.63;101627.31;;;;-51
2020/05/29 01:08:07;;;;;;;1.54;1.39;;;;;;;19.57;44.63;101632.63;;;;-52
2020/05/29 01:10:57;;;;;;;1.29;1.21;;;;;;;19.56;44.65;101632.18;;;;-52
2020/05/29 01:21:39;;;;;;;1.37;1.27;;;;;;;19.55;44.60;101628.16;;;;-52
2020/05/29 01:23:53;;;;;;;1.44;1.28;;;;;;;19.56;44.59;101628.53;;;;-51
2020/05/29 01:26:51;;;;;;;1.70;1.33;;;;;;;19.55;44.60;101622.72;;;;-51
2020/05/29 01:29:51;;;;;;;1.31;1.21;;;;;;;19.54;44.60;101628.26;;;;-50
2020/05/29 01:33:01;;;;;;;1.33;1.23;;;;;;;19.55;44.60;101628.47;;;;-52
2020/05/29 01:36:02;;;;;;;1.29;1.19;;;;;;;19.54;44.55;101630.94;;;;-53
2020/05/29 01:38:52;;;;;;;1.35;1.23;;;;;;;19.54;44.60;101630.36;;;;-52
2020/05/29 01:41:51;;;;;;;1.40;1.30;;;;;;;19.53;44.56;101633.72;;;;-52
2020/05/29 01:44:51;;;;;;;1.39;1.29;;;;;;;19.53;44.56;101631.88;;;;-52
2020/05/29 01:47:52;;;;;;;1.40;1.30;;;;;;;19.53;44.54;101630.81;;;;-52
2020/05/29 01:50:55;;;;;;;1.33;1.21;;;;;;;19.53;44.56;101634.56;;;;-52
2020/05/29 01:54:01;;;;;;;1.48;1.38;;;;;;;19.52;44.46;101640.80;;;;-52
2020/05/29 01:56:54;;;;;;;1.38;1.28;;;;;;;19.53;44.51;101639.34;;;;-52
2020/05/29 01:59:52;;;;;;;1.27;1.17;;;;;;;19.53;44.53;101638.91;;;;-51
2020/05/29 02:02:51;;;;;;;1.48;1.25;;;;;;;19.53;44.53;101631.70;;;;-51
2020/05/29 02:05:51;;;;;;;1.31;1.21;;;;;;;19.52;44.52;101631.30;;;;-51
2020/05/29 02:08:51;;;;;;;1.37;1.26;;;;;;;19.52;44.56;101633.60;;;;-51
2020/05/29 02:12:34;;;;;;;1.30;1.20;;;;;;;19.52;44.58;101637.16;;;;-52
2020/05/29 02:14:55;;;;;;;1.41;1.31;;;;;;;19.52;44.51;101641.36;;;;-52
2020/05/29 02:21:00;;;;;;;1.48;1.21;;;;;;;19.51;44.42;101632.87;;;;-53
2020/05/29 02:23:58;;;;;;;1.30;1.20;;;;;;;19.51;44.49;101625.38;;;;-53
2020/05/29 02:30:14;;;;;;;1.26;1.17;;;;;;;19.51;44.46;101622.02;;;;-51
2020/05/29 02:35:42;;;;;;;1.35;1.22;;;;;;;19.50;44.49;101620.00;;;;-51
2020/05/29 02:37:59;;;;;;;1.30;1.19;;;;;;;19.50;44.40;101617.48;;;;-51
2020/05/29 02:41:03;;;;;;;1.30;1.20;;;;;;;19.50;44.50;101617.98;;;;-52
2020/05/29 02:47:00;;;;;;;1.31;1.21;;;;;;;19.49;44.55;101617.83;;;;-52
2020/05/29 02:49:57;;;;;;;1.30;1.20;;;;;;;19.48;44.37;101617.94;;;;-52
2020/05/29 02:58:57;;;;;;;1.44;1.20;;;;;;;19.49;44.44;101622.56;;;;-53
2020/05/29 03:04:56;;;;;;;1.51;1.27;;;;;;;19.48;44.43;101610.73;;;;-52
2020/05/29 03:15:04;;;;;;;1.37;1.19;;;;;;;19.47;44.32;101616.08;;;;-51
2020/05/29 03:20:59;;;;;;;1.47;1.29;;;;;;;19.47;44.45;101621.60;;;;-52
2020/05/29 03:23:56;;;;;;;1.33;1.23;;;;;;;19.47;44.39;101623.55;;;;-52
2020/05/29 03:27:06;;;;;;;1.34;1.24;;;;;;;19.47;44.35;101621.60;;;;-53
2020/05/29 03:38:07;;;;;;;1.40;1.27;;;;;;;19.46;44.40;101630.59;;;;-52
2020/05/29 03:44:06;;;;;;;1.26;1.16;;;;;;;19.45;44.39;101632.25;;;;-52
2020/05/29 03:50:15;;;;;;;1.56;1.10;;;;;;;19.44;44.44;101634.61;;;;-52
2020/05/29 03:52:58;;;;;;;1.36;1.20;;;;;;;19.44;44.37;101630.75;;;;-53
2020/05/29 04:07:17;;;;;;;1.43;1.33;;;;;;;19.41;44.53;101635.95;;;;-52
2020/05/29 04:15:00;;;;;;;1.51;1.25;;;;;;;19.41;44.35;101633.39;;;;-52
2020/05/29 04:18:04;;;;;;;1.31;1.21;;;;;;;19.41;44.31;101631.94;;;;-52
2020/05/29 04:25:13;;;;;;;1.29;1.19;;;;;;;19.41;44.32;101637.47;;;;-53
2020/05/29 04:28:14;;;;;;;1.38;1.27;;;;;;;19.41;44.31;101638.36;;;;-52
2020/05/29 04:31:00;;;;;;;1.35;1.22;;;;;;;19.42;44.17;101634.63;;;;-52
2020/05/29 04:34:36;;;;;;;1.31;1.20;;;;;;;19.42;44.30;101633.80;;;;-52
2020/05/29 04:37:00;;;;;;;1.67;1.30;;;;;;;19.42;44.32;101635.53;;;;-52
2020/05/29 04:40:02;;;;;;;2.31;1.17;;;;;;;19.41;44.21;101635.23;;;;-52
2020/05/29 04:46:06;;;;;;;1.43;1.33;;;;;;;19.41;44.15;101637.69;;;;-53
2020/05/29 04:53:59;;;;;;;1.55;1.35;;;;;;;19.42;44.20;101640.55;;;;-50
2020/05/29 05:02:55;;;;;;;1.29;1.19;;;;;;;19.42;44.18;101638.70;;;;-50
2020/05/29 05:06:18;;;;;;;1.85;1.30;;;;;;;19.42;44.13;101636.81;;;;-50
2020/05/29 05:09:01;;;;;;;1.25;1.15;;;;;;;19.42;44.18;101636.69;;;;-50
2020/05/29 05:12:00;;;;;;;1.39;1.20;;;;;;;19.42;44.18;101637.75;;;;-50
2020/05/29 05:19:02;;;;;;;1.36;1.26;;;;;;;19.42;44.21;101637.36;;;;-50
2020/05/29 05:21:59;;;;;;;1.30;1.23;;;;;;;19.43;44.13;101633.23;;;;-49
2020/05/29 05:24:59;;;;;;;1.56;1.30;;;;;;;19.42;44.20;101634.07;;;;-49
2020/05/29 05:27:56;;;;;;;1.52;1.30;;;;;;;19.42;44.21;101628.83;;;;-54
2020/05/29 05:34:26;;;;;;;1.33;1.21;;;;;;;19.42;44.20;101627.31;;;;-54
2020/05/29 05:36:52;;;;;;;1.52;1.17;;;;;;;19.42;44.21;101621.78;;;;-54
2020/05/29 05:40:04;;;;;;;1.49;1.29;;;;;;;19.42;44.22;101625.36;;;;-54
2020/05/29 05:43:00;;;;;;;1.73;1.30;;;;;;;19.43;44.19;101624.58;;;;-54
2020/05/29 05:49:00;;;;;;;1.26;1.16;;;;;;;19.43;44.23;101620.63;;;;-55
2020/05/29 05:55:13;;;;;;;1.54;1.33;;;;;;;19.43;44.19;101618.11;;;;-54
2020/05/29 05:58:05;;;;;;;1.40;1.30;;;;;;;19.43;44.24;101619.83;;;;-54
2020/05/29 06:00:59;;;;;;;1.33;1.20;;;;;;;19.43;44.24;101621.00;;;;-55
2020/05/29 06:03:57;;;;;;;1.61;1.30;;;;;;;19.44;44.23;101620.58;;;;-54
2020/05/29 06:26:04;;;;;;;1.41;1.23;;;;;;;19.44;44.13;101620.58;;;;-54
2020/05/29 06:31:58;;;;;;;1.30;1.20;;;;;;;19.43;44.18;101618.89;;;;-54
2020/05/29 06:35:14;;;;;;;5.89;1.75;;;;;;;19.31;40.29;101613.83;;;;-52
2020/05/29 06:37:59;;;;;;;3.59;1.75;;;;;;;19.19;39.93;101615.22;;;;-52
2020/05/29 06:41:27;;;;;;;2.73;1.70;;;;;;;19.14;40.00;101617.30;;;;-52
2020/05/29 06:44:15;;;;;;;4.96;1.74;;;;;;;19.07;39.03;101617.05;;;;-52
2020/05/29 06:48:12;;;;;;;8.04;1.90;;;;;;;19.05;39.06;101614.45;;;;-52
2020/05/29 06:54:06;;;;;;;5.43;1.93;;;;;;;19.01;39.40;101621.28;;;;-52
2020/05/29 06:57:12;;;;;;;4.10;1.79;;;;;;;19.02;39.57;101622.29;;;;-51
2020/05/29 07:03:00;;;;;;;4.54;1.89;;;;;;;19.05;39.97;101620.48;;;;-52
2020/05/29 07:08:58;;;;;;;4.42;1.73;;;;;;;19.16;40.90;101614.52;;;;-53
2020/05/29 07:11:53;;;;;;;5.07;1.88;;;;;;;19.19;41.05;101614.12;;;;-54
2020/05/29 07:15:37;;;;;;;6.45;1.71;;;;;;;19.21;41.24;101614.81;;;;-54
2020/05/29 07:18:01;;;;;;;3.39;1.65;;;;;;;19.22;41.19;101608.28;;;;-55
2020/05/29 07:20:56;;;;;;;3.05;1.69;;;;;;;19.23;41.22;101607.23;;;;-55
2020/05/29 07:30:58;;;;;;;3.00;1.63;;;;;;;19.26;41.46;101602.49;;;;-54
2020/05/29 07:34:09;;;;;;;3.03;1.60;;;;;;;19.26;41.51;101602.33;;;;-51
2020/05/29 07:37:40;;;;;;;4.33;1.59;;;;;;;19.29;41.91;101603.42;;;;-51
2020/05/29 07:40:08;;;;;;;3.31;1.90;;;;;;;19.30;42.08;101602.38;;;;-50
2020/05/29 07:43:17;;;;;;;4.23;1.57;;;;;;;19.31;42.27;101601.10;;;;-53
2020/05/29 07:49:00;;;;;;;4.19;1.71;;;;;;;19.35;42.56;101595.92;;;;-53
2020/05/29 07:59:56;;;;;;;3.81;1.61;;;;;;;19.43;42.85;101598.45;;;;-54
2020/05/29 08:03:02;;;;;;;3.81;1.49;;;;;;;19.45;43.08;101595.11;;;;-54
2020/05/29 08:06:11;;;;;;;2.37;1.57;;;;;;;19.45;43.12;101588.36;;;;-54
2020/05/29 08:11:56;;;;;;;4.84;1.63;;;;;;;19.50;43.37;101590.23;;;;-52
2020/05/29 08:15:21;;;;;;;9.41;1.77;;;;;;;19.52;43.20;101590.70;;;;-56
2020/05/29 08:18:06;;;;;;;6.73;1.65;;;;;;;19.51;43.21;101585.21;;;;-56
2020/05/29 08:27:00;;;;;;;3.92;1.61;;;;;;;19.50;43.22;101578.34;;;;-55
2020/05/29 08:30:12;;;;;;;5.85;1.65;;;;;;;19.51;43.25;101581.31;;;;-55
2020/05/29 08:34:12;;;;;;;2.39;1.56;;;;;;;19.51;43.22;101581.14;;;;-55
2020/05/29 08:36:56;;;;;;;3.22;1.49;;;;;;;19.50;43.21;101579.36;;;;-55
2020/05/29 08:39:58;;;;;;;2.53;1.51;;;;;;;19.51;43.15;101574.88;;;;-56
2020/05/29 08:42:55;;;;;;;2.50;1.39;;;;;;;19.51;43.19;101572.77;;;;-56
2020/05/29 08:45:58;;;;;;;2.49;1.56;;;;;;;19.51;43.14;101573.54;;;;-55
2020/05/29 08:49:02;;;;;;;4.73;1.57;;;;;;;19.52;43.20;101570.81;;;;-56
2020/05/29 08:52:02;;;;;;;3.89;1.59;;;;;;;19.50;43.16;101573.83;;;;-55
2020/05/29 08:55:00;;;;;;;2.46;1.49;;;;;;;19.51;43.16;101574.22;;;;-56
2020/05/29 08:58:03;;;;;;;2.80;1.34;;;;;;;19.51;43.16;101572.14;;;;-56
2020/05/29 09:12:36;;;;;;;2.76;1.30;;;;;;;19.52;43.12;101565.89;;;;-56
2020/05/29 09:15:59;;;;;;;2.43;1.31;;;;;;;19.52;43.16;101560.21;;;;-55
2020/05/29 09:18:10;;;;;;;2.14;1.45;;;;;;;19.52;43.13;101561.72;;;;-56
2020/05/29 09:25:56;;;;;;;2.32;1.41;;;;;;;19.53;43.12;101556.47;;;;-56
2020/05/29 09:29:08;;;;;;;1.41;1.30;;;;;;;19.52;43.18;101550.38;;;;-56
2020/05/29 09:35:03;;;;;;;1.71;1.40;;;;;;;19.53;43.19;101540.89;;;;-56
2020/05/29 09:37:57;;;;;;;1.85;1.37;;;;;;;19.53;43.26;101536.53;;;;-56
2020/05/29 09:44:00;;;;;;;2.00;1.38;;;;;;;19.54;43.30;101530.33;;;;-56
2020/05/29 09:47:09;;;;;;;4.21;1.64;;;;;;;19.54;43.39;101523.03;;;;-52
2020/05/29 09:49:58;;;;;;;2.94;1.49;;;;;;;19.56;43.41;101512.08;;;;-54
2020/05/29 09:56:57;;;;;;;3.04;1.55;;;;;;;19.59;43.59;101508.01;;;;-54
2020/05/29 10:00:43;;;;;;;2.67;1.44;;;;;;;19.60;43.75;101500.75;;;;-52
2020/05/29 10:06:58;;;;;;;2.94;1.30;;;;;;;19.63;43.75;101489.05;;;;-52
2020/05/29 10:16:02;;;;;;;4.65;1.41;;;;;;;19.67;43.85;101480.91;;;;-54
2020/05/29 10:30:33;;;;;;;1.55;1.43;;;;;;;19.71;43.97;101466.68;;;;-52
2020/05/29 10:41:34;;;;;;;3.47;1.40;;;;;;;19.73;44.00;101467.42;;;;-52
2020/05/29 10:49:15;;;;;;;3.07;1.40;;;;;;;19.71;43.98;101452.55;;;;-52
2020/05/29 10:59:53;;;;;;;1.91;1.40;;;;;;;19.70;43.94;101450.42;;;;-51
2020/05/29 11:03:04;;;;;;;2.64;1.31;;;;;;;19.70;43.93;101448.52;;;;-52
2020/05/29 11:06:14;;;;;;;2.53;1.53;;;;;;;19.69;43.93;101447.52;;;;-51
2020/05/29 11:12:07;;;;;;;1.49;1.36;;;;;;;19.69;43.87;101444.62;;;;-49
2020/05/29 11:15:00;;;;;;;2.49;1.47;;;;;;;19.68;43.90;101431.70;;;;-50
2020/05/29 11:17:58;;;;;;;4.80;1.31;;;;;;;19.68;43.81;101425.67;;;;-49
2020/05/29 11:24:06;;;;;;;1.71;1.20;;;;;;;19.68;43.82;101423.66;;;;-49
2020/05/29 11:27:00;;;;;;;1.48;1.30;;;;;;;19.67;43.79;101418.17;;;;-49
2020/05/29 11:33:02;;;;;;;3.84;1.41;;;;;;;19.68;43.73;101411.04;;;;-49
2020/05/29 11:36:51;;;;;;;3.44;1.40;;;;;;;19.68;43.78;101412.16;;;;-49
2020/05/29 11:40:13;;;;;;;2.65;1.49;;;;;;;19.67;43.73;101400.87;;;;-49
2020/05/29 11:42:51;;;;;;;2.41;1.53;;;;;;;19.66;43.76;101392.70;;;;-48
2020/05/29 11:48:52;;;;;;;2.15;1.20;;;;;;;19.66;43.76;101395.49;;;;-49
2020/05/29 11:51:51;;;;;;;1.54;1.19;;;;;;;19.67;43.71;101391.09;;;;-49
2020/05/29 11:54:51;;;;;;;2.05;1.40;;;;;;;19.67;43.73;101390.07;;;;-49
2020/05/29 11:57:51;;;;;;;1.30;1.20;;;;;;;19.66;43.73;101386.56;;;;-51
2020/05/29 12:00:51;;;;;;;1.70;1.27;;;;;;;19.66;43.72;101384.27;;;;-49
2020/05/29 12:03:51;;;;;;;2.25;1.30;;;;;;;19.66;43.72;101382.75;;;;-49
2020/05/29 12:06:51;;;;;;;3.93;1.31;;;;;;;19.66;43.73;101385.83;;;;-49
2020/05/29 12:09:51;;;;;;;2.17;1.47;;;;;;;19.66;43.75;101378.40;;;;-48
2020/05/29 12:12:53;;;;;;;1.49;1.10;;;;;;;19.66;43.77;101376.10;;;;-49
2020/05/29 12:16:00;;;;;;;1.74;1.41;;;;;;;19.66;43.72;101368.56;;;;-49
2020/05/29 12:18:59;;;;;;;1.67;1.28;;;;;;;19.68;43.88;101363.45;;;;-47
2020/05/29 12:21:51;;;;;;;1.66;1.27;;;;;;;19.67;44.02;101357.17;;;;-45
2020/05/29 12:24:51;;;;;;;1.87;1.37;;;;;;;19.68;44.02;101356.78;;;;-47
2020/05/29 12:27:51;;;;;;;2.19;1.45;;;;;;;19.70;44.11;101354.89;;;;-48
2020/05/29 12:30:51;;;;;;;3.75;1.61;;;;;;;19.71;44.26;101344.00;;;;-53
2020/05/29 12:33:51;;;;;;;3.07;1.60;;;;;;;19.74;44.31;101352.11;;;;-51
2020/05/29 12:36:51;;;;;;;4.32;1.60;;;;;;;19.76;44.42;101344.08;;;;-48
2020/05/29 12:39:51;;;;;;;3.79;1.65;;;;;;;19.78;44.54;101338.48;;;;-53
2020/05/29 12:42:51;;;;;;;4.72;1.79;;;;;;;19.80;44.38;101339.04;;;;-52
2020/05/29 12:45:51;;;;;;;3.25;1.72;;;;;;;19.81;44.38;101337.48;;;;-49
2020/05/29 12:48:51;;;;;;;2.65;1.50;;;;;;;19.81;44.52;101330.45;;;;-50
2020/05/29 12:51:51;;;;;;;6.31;1.88;;;;;;;19.81;44.52;101323.75;;;;-52
2020/05/29 12:54:51;;;;;;;4.65;1.70;;;;;;;19.81;44.53;101323.08;;;;-54
2020/05/29 12:57:51;;;;;;;5.63;1.67;;;;;;;19.82;44.56;101316.52;;;;-53
2020/05/29 13:00:51;;;;;;;8.08;1.81;;;;;;;19.83;44.52;101314.91;;;;-53
2020/05/29 13:03:51;;;;;;;4.32;1.73;;;;;;;19.83;44.50;101318.83;;;;-53
2020/05/29 13:06:51;;;;;;;3.21;1.65;;;;;;;19.83;44.48;101309.94;;;;-50
2020/05/29 13:09:51;;;;;;;3.92;1.79;;;;;;;19.84;44.52;101308.33;;;;-51
2020/05/29 13:12:51;;;;;;;16.19;2.80;;;;;;;19.89;44.56;101313.70;;;;-50
2020/05/29 13:15:51;;;;;;;6.71;1.69;;;;;;;19.89;44.44;101304.75;;;;-51
2020/05/29 13:18:52;;;;;;;7.32;2.10;;;;;;;19.89;44.45;101303.57;;;;-51
2020/05/29 13:21:51;;;;;;;5.69;2.10;;;;;;;19.89;44.38;101302.02;;;;-51
2020/05/29 13:27:51;;;;;;;6.34;2.11;;;;;;;19.90;44.42;101297.04;;;;-49
2020/05/29 13:30:51;;;;;;;8.33;2.23;;;;;;;19.93;44.42;101290.85;;;;-52
2020/05/29 13:33:51;;;;;;;9.33;2.25;;;;;;;19.95;44.56;101290.80;;;;-47
2020/05/29 13:36:51;;;;;;;6.66;2.00;;;;;;;19.96;44.27;101277.44;;;;-47
2020/05/29 13:39:51;;;;;;;6.37;2.31;;;;;;;19.94;44.30;101275.15;;;;-46
2020/05/29 13:42:56;;;;;;;4.98;2.16;;;;;;;19.92;44.29;101267.70;;;;-46
2020/05/29 13:48:55;;;;;;;4.63;2.17;;;;;;;19.94;44.42;101264.41;;;;-51
2020/05/29 13:53:19;;;;;;;5.83;2.31;;;;;;;19.96;44.47;101263.36;;;;-56
2020/05/29 13:55:51;;;;;;;9.80;2.31;;;;;;;19.97;44.47;101262.91;;;;-55
2020/05/29 14:02:51;;;;;;;4.31;2.17;;;;;;;19.95;44.40;101255.97;;;;-55
2020/05/29 14:07:34;;;;;;;6.28;2.21;;;;;;;19.95;44.37;101253.91;;;;-54
2020/05/29 14:09:51;;;;;;;4.57;2.29;;;;;;;19.94;44.33;101250.67;;;;-55
2020/05/29 14:19:13;;;;;;;4.67;2.19;;;;;;;19.92;44.28;101241.00;;;;-53
2020/05/29 14:22:12;;;;;;;8.13;2.17;;;;;;;19.92;44.27;101232.06;;;;-53
2020/05/29 14:31:07;;;;;;;4.81;2.20;;;;;;;19.90;44.23;101223.50;;;;-53
2020/05/29 14:37:01;;;;;;;6.23;2.16;;;;;;;19.90;44.20;101218.88;;;;-53
2020/05/29 14:39:56;;;;;;;4.66;2.12;;;;;;;19.89;44.19;101217.14;;;;-53
2020/05/29 14:55:58;;;;;;;4.22;2.21;;;;;;;19.87;44.10;101213.62;;;;-55
2020/05/29 14:58:55;;;;;;;3.29;1.99;;;;;;;19.87;44.11;101214.78;;;;-55
2020/05/29 15:03:27;;;;;;;4.41;2.13;;;;;;;19.87;44.10;101208.42;;;;-55
2020/05/29 15:04:57;;;;;;;4.01;2.03;;;;;;;19.86;44.07;101208.14;;;;-55
2020/05/29 15:16:57;;;;;;;3.58;1.95;;;;;;;19.85;44.06;101195.80;;;;-56
2020/05/29 15:20:00;;;;;;;2.83;2.00;;;;;;;19.84;44.03;101191.94;;;;-52
2020/05/29 15:26:03;;;;;;;4.92;2.08;;;;;;;19.86;44.27;101190.88;;;;-53
2020/05/29 15:29:37;;;;;;;3.03;1.81;;;;;;;19.87;44.29;101188.03;;;;-53
2020/05/29 15:33:34;;;;;;;3.45;1.95;;;;;;;19.88;44.37;101192.03;;;;-54
2020/05/29 15:40:04;;;;;;;6.66;2.12;;;;;;;19.93;44.62;101185.57;;;;-56
2020/05/29 15:42:58;;;;;;;7.23;1.97;;;;;;;19.93;44.73;101180.48;;;;-50
2020/05/29 15:45:55;;;;;;;9.50;2.17;;;;;;;19.93;44.74;101174.16;;;;-51
2020/05/29 15:54:13;;;;;;;3.21;1.80;;;;;;;19.95;44.89;101164.38;;;;-56
2020/05/29 15:57:13;;;;;;;3.75;1.88;;;;;;;19.96;44.86;101158.89;;;;-54
2020/05/29 16:00:13;;;;;;;4.57;1.82;;;;;;;19.96;44.94;101159.08;;;;-54
2020/05/29 16:03:13;;;;;;;5.44;1.93;;;;;;;19.97;44.94;101157.62;;;;-51
2020/05/29 16:06:13;;;;;;;5.61;2.03;;;;;;;19.97;44.88;101155.92;;;;-51
2020/05/29 16:09:13;;;;;;;5.05;1.73;;;;;;;19.97;44.80;101158.44;;;;-50
2020/05/29 16:12:13;;;;;;;4.33;1.87;;;;;;;19.98;44.92;101152.08;;;;-51
2020/05/29 16:15:13;;;;;;;3.25;1.63;;;;;;;19.99;44.82;101152.00;;;;-51
2020/05/29 16:18:13;;;;;;;3.50;1.62;;;;;;;19.98;44.93;101150.23;;;;-52
2020/05/29 16:21:13;;;;;;;4.34;1.95;;;;;;;20.00;44.89;101148.42;;;;-54
2020/05/29 16:24:13;;;;;;;4.89;1.78;;;;;;;20.01;44.99;101146.17;;;;-55
2020/05/29 16:27:13;;;;;;;3.69;1.90;;;;;;;20.02;44.87;101147.36;;;;-52
2020/05/29 16:30:13;;;;;;;2.97;1.73;;;;;;;20.02;44.80;101151.77;;;;-56
2020/05/29 16:33:13;;;;;;;2.73;1.64;;;;;;;20.02;44.75;101142.88;;;;-55
2020/05/29 16:36:13;;;;;;;3.10;1.74;;;;;;;20.02;44.67;101149.81;;;;-53
2020/05/29 16:39:13;;;;;;;7.45;1.90;;;;;;;20.03;44.60;101152.66;;;;-53
2020/05/29 16:43:13;;;;;;;3.10;1.95;;;;;;;20.01;44.69;101143.06;;;;-54
2020/05/29 16:46:13;;;;;;;5.60;1.98;;;;;;;20.01;44.61;101147.42;;;;-53
2020/05/29 16:49:13;;;;;;;3.57;1.73;;;;;;;20.01;44.63;101151.95;;;;-53
2020/05/29 16:52:13;;;;;;;3.71;1.66;;;;;;;20.01;44.63;101147.75;;;;-53
2020/05/29 16:55:13;;;;;;;5.39;1.78;;;;;;;19.99;44.61;101145.64;;;;-53
2020/05/29 16:58:13;;;;;;;3.70;1.69;;;;;;;19.99;44.60;101146.41;;;;-53
2020/05/29 17:01:13;;;;;;;3.27;1.77;;;;;;;19.99;44.56;101144.97;;;;-53
2020/05/29 17:04:13;;;;;;;3.13;1.78;;;;;;;20.00;44.54;101143.50;;;;-54
2020/05/29 17:07:13;;;;;;;3.34;1.84;;;;;;;20.00;44.50;101140.38;;;;-53
2020/05/29 17:10:13;;;;;;;5.69;1.97;;;;;;;19.99;44.48;101133.28;;;;-53
2020/05/29 17:13:15;;;;;;;4.10;1.88;;;;;;;19.99;44.46;101139.76;;;;-53
2020/05/29 17:16:13;;;;;;;4.92;1.90;;;;;;;19.98;44.49;101137.41;;;;-54
2020/05/29 17:19:13;;;;;;;3.73;1.94;;;;;;;19.98;44.46;101134.81;;;;-54
2020/05/29 17:22:16;;;;;;;3.37;1.89;;;;;;;19.98;44.40;101135.04;;;;-54
2020/05/29 17:25:17;;;;;;;2.95;1.78;;;;;;;19.98;44.36;101131.69;;;;-54
2020/05/29 17:28:13;;;;;;;3.55;2.03;;;;;;;19.97;44.36;101127.38;;;;-54
2020/05/29 17:31:13;;;;;;;2.71;1.90;;;;;;;19.97;44.33;101131.63;;;;-53
2020/05/29 17:34:13;;;;;;;6.63;2.25;;;;;;;19.96;44.28;101124.02;;;;-55
2020/05/29 17:37:13;;;;;;;3.47;2.06;;;;;;;19.97;44.28;101121.45;;;;-53
2020/05/29 17:40:13;;;;;;;3.85;1.84;;;;;;;19.98;44.32;101122.31;;;;-53
2020/05/29 17:43:13;;;;;;;5.07;2.05;;;;;;;19.98;44.37;101115.10;;;;-53
2020/05/29 17:46:13;;;;;;;3.37;1.82;;;;;;;19.99;44.35;101117.73;;;;-54
2020/05/29 17:49:13;;;;;;;2.59;1.86;;;;;;;19.99;44.37;101113.66;;;;-56
2020/05/29 17:52:13;;;;;;;4.83;2.04;;;;;;;19.99;44.39;101109.09;;;;-54
2020/05/29 17:55:27;;;;;;;5.12;2.05;;;;;;;20.00;44.36;101110.47;;;;-55
2020/05/29 17:58:13;;;;;;;4.07;1.71;;;;;;;20.01;44.33;101109.95;;;;-52
2020/05/29 18:01:13;;;;;;;3.73;1.86;;;;;;;20.02;44.34;101110.59;;;;-51
2020/05/29 18:04:13;;;;;;;2.29;1.77;;;;;;;20.01;44.35;101107.44;;;;-51
2020/05/29 18:07:13;;;;;;;3.71;2.05;;;;;;;20.01;44.36;101107.78;;;;-51
2020/05/29 18:10:13;;;;;;;3.31;1.79;;;;;;;20.00;44.34;101105.95;;;;-51
2020/05/29 18:13:20;;;;;;;4.84;1.94;;;;;;;20.00;44.30;101103.44;;;;-51
2020/05/29 18:16:23;;;;;;;2.35;1.81;;;;;;;20.00;44.33;101105.11;;;;-52
2020/05/29 18:19:13;;;;;;;1.88;1.66;;;;;;;19.99;44.29;101101.63;;;;-52
2020/05/29 18:22:13;;;;;;;2.37;1.90;;;;;;;19.99;44.33;101098.68;;;;-51
2020/05/29 18:25:13;;;;;;;3.26;1.70;;;;;;;19.99;44.33;101100.25;;;;-51
2020/05/29 18:28:13;;;;;;;1.99;1.67;;;;;;;19.98;44.31;101096.55;;;;-51
2020/05/29 18:31:13;;;;;;;3.81;1.97;;;;;;;19.97;44.26;101094.45;;;;-51
2020/05/29 18:34:13;;;;;;;2.73;1.80;;;;;;;19.98;44.29;101101.78;;;;-51
2020/05/29 18:37:13;;;;;;;2.74;1.69;;;;;;;19.97;44.30;101097.20;;;;-52
2020/05/29 18:40:13;;;;;;;4.60;2.01;;;;;;;19.98;44.29;101096.14;;;;-51
2020/05/29 18:46:13;;;;;;;5.13;1.91;;;;;;;19.97;44.25;101089.03;;;;-53
2020/05/29 18:49:13;;;;;;;3.57;1.89;;;;;;;19.96;44.30;101088.30;;;;-52
2020/05/29 18:52:13;;;;;;;2.84;1.83;;;;;;;19.95;44.29;101088.75;;;;-53
2020/05/29 18:55:13;;;;;;;2.53;1.75;;;;;;;19.96;44.23;101088.93;;;;-51
2020/05/29 18:58:13;;;;;;;3.16;1.87;;;;;;;19.96;44.24;101090.17;;;;-52
2020/05/29 19:01:13;;;;;;;2.21;1.77;;;;;;;19.95;44.30;101086.26;;;;-53
2020/05/29 19:04:22;;;;;;;2.91;1.90;;;;;;;19.95;44.28;101093.17;;;;-53
2020/05/29 19:07:24;;;;;;;2.20;1.67;;;;;;;19.94;44.25;101089.44;;;;-53
2020/05/29 19:15:07;;;;;;;2.88;1.68;;;;;;;19.93;44.23;101092.17;;;;-52
2020/05/29 19:18:19;;;;;;;3.07;1.82;;;;;;;19.95;44.24;101096.66;;;;-48
2020/05/29 19:36:23;;;;;;;3.94;1.83;;;;;;;20.03;44.76;101107.45;;;;-49
2020/05/29 19:39:32;;;;;;;11.57;2.03;;;;;;;20.06;44.66;101102.58;;;;-53
2020/05/29 19:49:18;;;;;;;2.83;1.78;;;;;;;20.08;44.65;101119.68;;;;-52
2020/05/29 19:52:28;;;;;;;6.27;1.69;;;;;;;20.09;44.74;101119.17;;;;-50
2020/05/29 20:08:42;;;;;;;2.21;1.83;;;;;;;20.12;44.71;101127.27;;;;-50
2020/05/29 20:11:46;;;;;;;4.22;1.85;;;;;;;20.12;44.69;101132.97;;;;-51
2020/05/29 20:14:57;;;;;;;4.18;1.59;;;;;;;20.13;44.50;101121.78;;;;-50
2020/05/29 20:17:23;;;;;;;3.63;1.65;;;;;;;20.13;44.55;101120.94;;;;-53
2020/05/29 20:26:22;;;;;;;4.63;1.83;;;;;;;20.14;44.47;101125.96;;;;-48
2020/05/29 20:37:40;;;;;;;2.10;1.73;;;;;;;20.12;44.34;101127.04;;;;-53
2020/05/29 20:43:32;;;;;;;3.33;1.61;;;;;;;20.11;44.43;101125.13;;;;-53
2020/05/29 20:46:33;;;;;;;2.15;1.67;;;;;;;20.10;44.49;101125.64;;;;-53
2020/05/29 20:50:30;;;;;;;2.34;1.70;;;;;;;20.08;44.46;101123.70;;;;-53
2020/05/29 20:53:18;;;;;;;2.39;1.72;;;;;;;20.08;44.45;101124.38;;;;-53
2020/05/29 20:56:24;;;;;;;3.82;1.61;;;;;;;20.07;44.44;101120.96;;;;-52
2020/05/29 20:59:19;;;;;;;5.59;1.77;;;;;;;20.06;44.44;101119.56;;;;-53
2020/05/29 21:02:19;;;;;;;2.71;1.53;;;;;;;20.05;44.44;101116.77;;;;-53
2020/05/29 21:05:25;;;;;;;2.23;1.66;;;;;;;20.04;44.41;101118.91;;;;-52
2020/05/29 21:15:18;;;;;;;2.69;1.60;;;;;;;20.02;44.36;101113.87;;;;-53
2020/05/29 21:18:25;;;;;;;1.82;1.59;;;;;;;20.01;44.38;101114.82;;;;-53
2020/05/29 21:29:15;;;;;;;2.71;1.65;;;;;;;19.99;44.38;101119.48;;;;-52
2020/05/29 21:32:38;;;;;;;2.70;1.77;;;;;;;19.99;44.34;101116.62;;;;-53
2020/05/29 21:35:25;;;;;;;2.66;1.71;;;;;;;19.98;44.35;101117.27;;;;-53
2020/05/29 21:45:19;;;;;;;3.17;1.57;;;;;;;19.96;44.33;101117.66;;;;-52
2020/05/29 21:48:20;;;;;;;2.45;1.53;;;;;;;19.95;44.29;101117.11;;;;-53
2020/05/29 21:51:38;;;;;;;1.85;1.59;;;;;;;19.94;44.30;101115.86;;;;-53
2020/05/29 21:54:25;;;;;;;1.47;1.37;;;;;;;19.93;44.27;101117.82;;;;-53
2020/05/29 22:09:01;;;;;;;1.85;1.51;;;;;;;19.90;44.24;101122.86;;;;-53
2020/05/29 22:17:23;;;;;;;1.66;1.56;;;;;;;19.89;44.18;101121.59;;;;-53
2020/05/29 22:20:22;;;;;;;1.71;1.61;;;;;;;19.88;44.21;101120.70;;;;-52
2020/05/29 22:23:21;;;;;;;2.12;1.57;;;;;;;19.87;44.14;101119.91;;;;-53
2020/05/29 22:35:30;;;;;;;2.98;1.58;;;;;;;19.86;44.12;101122.44;;;;-52
2020/05/29 22:38:17;;;;;;;1.57;1.47;;;;;;;19.86;44.15;101125.55;;;;-52
2020/05/29 22:44:39;;;;;;;1.61;1.51;;;;;;;19.85;44.11;101124.06;;;;-53
2020/05/29 22:47:24;;;;;;;1.52;1.42;;;;;;;19.84;44.07;101128.91;;;;-53
2020/05/29 22:50:37;;;;;;;1.60;1.50;;;;;;;19.84;44.06;101125.17;;;;-52
2020/05/29 22:53:23;;;;;;;1.60;1.50;;;;;;;19.83;44.06;101124.83;;;;-52
2020/05/29 22:59:22;;;;;;;1.61;1.44;;;;;;;19.82;44.05;101127.46;;;;-53
2020/05/29 23:05:24;;;;;;;1.57;1.46;;;;;;;19.82;44.01;101127.01;;;;-53
2020/05/29 23:08:14;;;;;;;2.25;1.41;;;;;;;19.81;44.08;101126.80;;;;-53
2020/05/29 23:13:08;;;;;;;1.78;1.50;;;;;;;19.81;44.02;101121.86;;;;-53
2020/05/29 23:16:17;;;;;;;1.49;1.39;;;;;;;19.80;44.04;101122.66;;;;-53
2020/05/29 23:19:13;;;;;;;1.67;1.41;;;;;;;19.79;44.02;101121.27;;;;-52
2020/05/29 23:22:13;;;;;;;1.50;1.40;;;;;;;19.79;43.97;101119.91;;;;-53
2020/05/29 23:25:13;;;;;;;1.41;1.31;;;;;;;19.80;44.01;101120.87;;;;-53
2020/05/29 23:28:13;;;;;;;1.61;1.51;;;;;;;19.78;44.00;101122.28;;;;-53
2020/05/29 23:31:13;;;;;;;1.53;1.42;;;;;;;19.78;43.97;101119.19;;;;-52
2020/05/29 23:34:13;;;;;;;1.59;1.49;;;;;;;19.78;44.01;101121.77;;;;-53
2020/05/29 23:37:13;;;;;;;1.53;1.43;;;;;;;19.77;43.95;101118.98;;;;-52
2020/05/29 23:40:13;;;;;;;1.77;1.50;;;;;;;19.77;43.98;101118.36;;;;-53
2020/05/29 23:43:13;;;;;;;1.39;1.29;;;;;;;19.76;43.95;101121.44;;;;-53
2020/05/29 23:46:13;;;;;;;1.41;1.30;;;;;;;19.76;43.93;101115.91;;;;-53
2020/05/29 23:49:13;;;;;;;1.62;1.50;;;;;;;19.75;43.92;101110.25;;;;-53
2020/05/29 23:52:13;;;;;;;1.45;1.35;;;;;;;19.75;43.99;101106.97;;;;-53
2020/05/29 23:55:13;;;;;;;1.95;1.39;;;;;;;19.75;43.92;101109.25;;;;-52
2020/05/29 23:58:13;;;;;;;1.52;1.37;;;;;;;19.74;43.95;101112.45;;;;-52
